sensor_id;sensor_type;location;lat;lon;timestamp;pressure;altitude;pressure_sealevel;temperature;humidity
59104;BME280;51449;51.676;5.812;2023-06-04T00:02:12;102064.44;;;15.38;44.82
59104;BME280;51449;51.676;5.812;2023-06-04T00:04:52;102073.59;;;15.39;45.03
59104;BME280;51449;51.676;5.812;2023-06-04T00:07:33;102065.78;;;15.32;45.68
59104;BME280;51449;51.676;5.812;2023-06-04T00:10:14;102062.84;;;15.29;45.77
59104;BME280;51449;51.676;5.812;2023-06-04T00:12:55;102063.06;;;15.24;45.84
59104;BME280;51449;51.676;5.812;2023-06-04T00:15:35;102066.50;;;15.20;46.12
59104;BME280;51449;51.676;5.812;2023-06-04T00:18:15;102063.25;;;15.18;46.25
59104;BME280;51449;51.676;5.812;2023-06-04T00:20:56;102067.84;;;15.14;46.95
59104;BME280;51449;51.676;5.812;2023-06-04T00:23:36;102064.13;;;15.10;46.72
59104;BME280;51449;51.676;5.812;2023-06-04T00:26:16;102067.88;;;15.06;46.81
59104;BME280;51449;51.676;5.812;2023-06-04T00:29:00;102064.97;;;15.02;46.62
59104;BME280;51449;51.676;5.812;2023-06-04T00:31:41;102066.44;;;14.99;46.52
59104;BME280;51449;51.676;5.812;2023-06-04T00:34:21;102072.66;;;14.96;46.97
59104;BME280;51449;51.676;5.812;2023-06-04T00:37:02;102062.38;;;14.97;46.88
59104;BME280;51449;51.676;5.812;2023-06-04T00:39:43;102064.69;;;14.95;46.73
59104;BME280;51449;51.676;5.812;2023-06-04T00:42:23;102057.34;;;14.90;47.03
59104;BME280;51449;51.676;5.812;2023-06-04T00:45:04;102054.09;;;14.88;47.38
59104;BME280;51449;51.676;5.812;2023-06-04T00:47:47;102062.25;;;14.85;47.24
59104;BME280;51449;51.676;5.812;2023-06-04T00:50:27;102061.81;;;14.83;47.08
59104;BME280;51449;51.676;5.812;2023-06-04T00:53:09;102060.47;;;14.80;47.51
59104;BME280;51449;51.676;5.812;2023-06-04T00:55:51;102065.56;;;14.78;47.47
59104;BME280;51449;51.676;5.812;2023-06-04T00:58:33;102063.13;;;14.76;47.34
59104;BME280;51449;51.676;5.812;2023-06-04T01:04:18;102071.28;;;14.73;47.45
59104;BME280;51449;51.676;5.812;2023-06-04T01:07:07;102063.97;;;14.68;47.73
59104;BME280;51449;51.676;5.812;2023-06-04T01:09:49;102066.56;;;14.65;47.60
59104;BME280;51449;51.676;5.812;2023-06-04T01:12:30;102065.63;;;14.61;48.10
59104;BME280;51449;51.676;5.812;2023-06-04T01:15:11;102063.84;;;14.56;47.81
59104;BME280;51449;51.676;5.812;2023-06-04T01:17:58;102068.56;;;14.55;47.70
59104;BME280;51449;51.676;5.812;2023-06-04T01:20:46;102068.69;;;14.50;47.75
59104;BME280;51449;51.676;5.812;2023-06-04T01:23:40;102068.88;;;14.45;47.79
59104;BME280;51449;51.676;5.812;2023-06-04T01:26:40;102067.09;;;14.41;47.98
59104;BME280;51449;51.676;5.812;2023-06-04T01:29:22;102074.91;;;14.39;48.12
59104;BME280;51449;51.676;5.812;2023-06-04T01:32:03;102065.31;;;14.36;48.30
59104;BME280;51449;51.676;5.812;2023-06-04T01:34:46;102070.84;;;14.36;48.53
59104;BME280;51449;51.676;5.812;2023-06-04T01:37:26;102068.41;;;14.34;48.03
59104;BME280;51449;51.676;5.812;2023-06-04T01:40:07;102066.31;;;14.31;48.76
59104;BME280;51449;51.676;5.812;2023-06-04T01:42:48;102059.31;;;14.25;48.63
59104;BME280;51449;51.676;5.812;2023-06-04T01:45:30;102065.69;;;14.17;49.33
59104;BME280;51449;51.676;5.812;2023-06-04T01:48:10;102061.13;;;14.12;49.37
59104;BME280;51449;51.676;5.812;2023-06-04T01:50:50;102064.56;;;14.09;49.22
59104;BME280;51449;51.676;5.812;2023-06-04T01:53:31;102060.13;;;14.08;49.40
59104;BME280;51449;51.676;5.812;2023-06-04T01:56:11;102064.06;;;14.07;49.19
59104;BME280;51449;51.676;5.812;2023-06-04T01:58:53;102065.34;;;14.01;50.19
59104;BME280;51449;51.676;5.812;2023-06-04T02:01:33;102063.56;;;13.97;49.57
59104;BME280;51449;51.676;5.812;2023-06-04T02:04:14;102068.59;;;13.95;49.29
59104;BME280;51449;51.676;5.812;2023-06-04T02:06:54;102061.44;;;13.94;49.65
59104;BME280;51449;51.676;5.812;2023-06-04T02:09:36;102065.69;;;13.91;49.60
59104;BME280;51449;51.676;5.812;2023-06-04T02:12:18;102067.97;;;13.89;49.84
59104;BME280;51449;51.676;5.812;2023-06-04T02:14:59;102066.16;;;13.84;50.04
59104;BME280;51449;51.676;5.812;2023-06-04T02:17:39;102062.91;;;13.82;50.58
59104;BME280;51449;51.676;5.812;2023-06-04T02:20:20;102062.75;;;13.79;49.90
59104;BME280;51449;51.676;5.812;2023-06-04T02:23:00;102057.03;;;13.75;50.41
59104;BME280;51449;51.676;5.812;2023-06-04T02:25:41;102065.50;;;13.70;51.12
59104;BME280;51449;51.676;5.812;2023-06-04T02:28:24;102060.47;;;13.63;50.46
59104;BME280;51449;51.676;5.812;2023-06-04T02:31:05;102061.94;;;13.61;50.95
59104;BME280;51449;51.676;5.812;2023-06-04T02:33:46;102061.75;;;13.57;50.74
59104;BME280;51449;51.676;5.812;2023-06-04T02:36:28;102060.13;;;13.56;51.08
59104;BME280;51449;51.676;5.812;2023-06-04T02:39:08;102060.75;;;13.53;50.93
59104;BME280;51449;51.676;5.812;2023-06-04T02:41:49;102066.28;;;13.53;51.01
59104;BME280;51449;51.676;5.812;2023-06-04T02:44:29;102059.63;;;13.54;51.64
59104;BME280;51449;51.676;5.812;2023-06-04T02:47:10;102063.88;;;13.52;51.02
59104;BME280;51449;51.676;5.812;2023-06-04T02:49:51;102068.41;;;13.47;51.08
59104;BME280;51449;51.676;5.812;2023-06-04T02:52:31;102065.00;;;13.42;51.55
59104;BME280;51449;51.676;5.812;2023-06-04T02:55:13;102062.03;;;13.38;51.33
59104;BME280;51449;51.676;5.812;2023-06-04T02:57:53;102066.25;;;13.36;51.27
59104;BME280;51449;51.676;5.812;2023-06-04T03:00:34;102068.53;;;13.34;51.31
59104;BME280;51449;51.676;5.812;2023-06-04T03:03:15;102064.47;;;13.31;52.23
59104;BME280;51449;51.676;5.812;2023-06-04T03:05:55;102070.97;;;13.26;51.75
59104;BME280;51449;51.676;5.812;2023-06-04T03:08:35;102070.47;;;13.24;51.65
59104;BME280;51449;51.676;5.812;2023-06-04T03:11:17;102074.34;;;13.23;51.81
59104;BME280;51449;51.676;5.812;2023-06-04T03:14:01;102068.66;;;13.20;51.62
59104;BME280;51449;51.676;5.812;2023-06-04T03:16:41;102076.59;;;13.13;51.48
59104;BME280;51449;51.676;5.812;2023-06-04T03:19:21;102068.75;;;13.06;51.82
59104;BME280;51449;51.676;5.812;2023-06-04T03:22:01;102074.13;;;13.02;51.96
59104;BME280;51449;51.676;5.812;2023-06-04T03:24:45;102067.91;;;12.97;52.30
59104;BME280;51449;51.676;5.812;2023-06-04T03:27:25;102070.66;;;12.97;52.19
59104;BME280;51449;51.676;5.812;2023-06-04T03:30:07;102075.09;;;12.98;52.41
59104;BME280;51449;51.676;5.812;2023-06-04T03:33:23;102077.84;;;12.98;51.86
59104;BME280;51449;51.676;5.812;2023-06-04T03:36:04;102064.19;;;13.01;51.79
59104;BME280;51449;51.676;5.812;2023-06-04T03:38:45;102065.84;;;13.02;52.45
59104;BME280;51449;51.676;5.812;2023-06-04T03:41:26;102065.84;;;13.02;52.26
59104;BME280;51449;51.676;5.812;2023-06-04T03:44:07;102062.88;;;12.99;52.29
59104;BME280;51449;51.676;5.812;2023-06-04T03:46:48;102066.13;;;13.01;52.88
59104;BME280;51449;51.676;5.812;2023-06-04T03:49:30;102071.97;;;12.99;52.87
59104;BME280;51449;51.676;5.812;2023-06-04T03:52:10;102077.84;;;12.98;52.98
59104;BME280;51449;51.676;5.812;2023-06-04T03:54:52;102075.41;;;12.96;52.88
59104;BME280;51449;51.676;5.812;2023-06-04T03:57:33;102070.66;;;12.97;52.54
59104;BME280;51449;51.676;5.812;2023-06-04T04:00:14;102072.31;;;12.98;53.31
59104;BME280;51449;51.676;5.812;2023-06-04T04:03:01;102076.19;;;12.97;53.36
59104;BME280;51449;51.676;5.812;2023-06-04T04:05:43;102080.13;;;12.96;53.31
59104;BME280;51449;51.676;5.812;2023-06-04T04:08:23;102072.94;;;12.95;53.06
59104;BME280;51449;51.676;5.812;2023-06-04T04:11:04;102075.09;;;12.98;52.65
59104;BME280;51449;51.676;5.812;2023-06-04T04:13:45;102081.94;;;13.00;53.50
59104;BME280;51449;51.676;5.812;2023-06-04T04:16:29;102077.22;;;13.01;53.20
59104;BME280;51449;51.676;5.812;2023-06-04T04:19:10;102076.72;;;12.99;53.50
59104;BME280;51449;51.676;5.812;2023-06-04T04:21:52;102080.78;;;13.01;53.69
59104;BME280;51449;51.676;5.812;2023-06-04T04:24:32;102079.66;;;13.02;53.53
59104;BME280;51449;51.676;5.812;2023-06-04T04:27:16;102079.66;;;13.02;53.62
59104;BME280;51449;51.676;5.812;2023-06-04T04:29:56;102078.81;;;13.02;54.09
59104;BME280;51449;51.676;5.812;2023-06-04T04:32:42;102074.13;;;13.02;54.20
59104;BME280;51449;51.676;5.812;2023-06-04T04:35:33;102079.81;;;13.06;54.16
59104;BME280;51449;51.676;5.812;2023-06-04T04:38:16;102078.38;;;13.09;54.00
59104;BME280;51449;51.676;5.812;2023-06-04T04:41:06;102075.44;;;13.14;53.66
59104;BME280;51449;51.676;5.812;2023-06-04T04:43:48;102078.06;;;13.19;53.99
59104;BME280;51449;51.676;5.812;2023-06-04T04:46:36;102082.66;;;13.23;54.04
59104;BME280;51449;51.676;5.812;2023-06-04T04:49:16;102080.09;;;13.27;53.64
59104;BME280;51449;51.676;5.812;2023-06-04T04:51:57;102088.56;;;13.31;53.97
59104;BME280;51449;51.676;5.812;2023-06-04T04:54:37;102087.09;;;13.33;54.11
59104;BME280;51449;51.676;5.812;2023-06-04T04:57:17;102081.75;;;13.37;54.39
59104;BME280;51449;51.676;5.812;2023-06-04T05:00:03;102085.50;;;13.41;54.46
59104;BME280;51449;51.676;5.812;2023-06-04T05:02:50;102085.03;;;13.47;54.04
59104;BME280;51449;51.676;5.812;2023-06-04T05:05:32;102088.31;;;13.58;53.98
59104;BME280;51449;51.676;5.812;2023-06-04T05:08:14;102089.31;;;13.71;54.03
59104;BME280;51449;51.676;5.812;2023-06-04T05:10:55;102088.19;;;13.81;53.81
59104;BME280;51449;51.676;5.812;2023-06-04T05:13:35;102091.28;;;13.88;53.57
59104;BME280;51449;51.676;5.812;2023-06-04T05:16:17;102084.91;;;13.96;53.29
59104;BME280;51449;51.676;5.812;2023-06-04T05:19:01;102086.22;;;14.07;52.85
59104;BME280;51449;51.676;5.812;2023-06-04T05:21:45;102088.00;;;14.21;52.88
59104;BME280;51449;51.676;5.812;2023-06-04T05:24:29;102091.09;;;14.28;52.67
59104;BME280;51449;51.676;5.812;2023-06-04T05:27:13;102084.88;;;14.31;52.49
59104;BME280;51449;51.676;5.812;2023-06-04T05:29:54;102086.53;;;14.32;52.26
59104;BME280;51449;51.676;5.812;2023-06-04T05:32:35;102101.84;;;14.38;52.07
59104;BME280;51449;51.676;5.812;2023-06-04T05:35:24;102092.03;;;14.49;52.32
59104;BME280;51449;51.676;5.812;2023-06-04T05:38:05;102090.72;;;14.64;51.96
59104;BME280;51449;51.676;5.812;2023-06-04T05:40:46;102087.47;;;14.71;51.78
59104;BME280;51449;51.676;5.812;2023-06-04T05:43:27;102085.31;;;14.76;51.70
59104;BME280;51449;51.676;5.812;2023-06-04T05:46:08;102088.72;;;14.82;51.59
59104;BME280;51449;51.676;5.812;2023-06-04T05:48:51;102093.44;;;14.90;51.46
59104;BME280;51449;51.676;5.812;2023-06-04T05:51:32;102087.03;;;14.98;51.43
59104;BME280;51449;51.676;5.812;2023-06-04T05:54:12;102097.75;;;15.09;51.13
59104;BME280;51449;51.676;5.812;2023-06-04T05:56:55;102092.16;;;15.17;51.01
59104;BME280;51449;51.676;5.812;2023-06-04T05:59:36;102096.84;;;15.26;50.75
59104;BME280;51449;51.676;5.812;2023-06-04T06:02:21;102094.38;;;15.33;50.88
59104;BME280;51449;51.676;5.812;2023-06-04T06:05:02;102089.59;;;15.42;50.75
59104;BME280;51449;51.676;5.812;2023-06-04T06:07:42;102085.41;;;15.57;50.65
59104;BME280;51449;51.676;5.812;2023-06-04T06:10:23;102099.38;;;15.69;50.45
59104;BME280;51449;51.676;5.812;2023-06-04T06:13:04;102089.38;;;15.77;50.14
59104;BME280;51449;51.676;5.812;2023-06-04T06:15:46;102096.69;;;15.81;49.86
59104;BME280;51449;51.676;5.812;2023-06-04T06:18:30;102100.28;;;15.82;49.72
59104;BME280;51449;51.676;5.812;2023-06-04T06:21:10;102095.81;;;15.90;49.46
59104;BME280;51449;51.676;5.812;2023-06-04T06:23:51;102103.59;;;15.96;49.55
59104;BME280;51449;51.676;5.812;2023-06-04T06:26:32;102107.13;;;16.05;49.28
59104;BME280;51449;51.676;5.812;2023-06-04T06:29:15;102108.22;;;16.13;48.99
59104;BME280;51449;51.676;5.812;2023-06-04T06:31:55;102103.41;;;16.22;48.67
59104;BME280;51449;51.676;5.812;2023-06-04T06:34:36;102100.88;;;16.30;48.43
59104;BME280;51449;51.676;5.812;2023-06-04T06:37:17;102112.25;;;16.37;48.42
59104;BME280;51449;51.676;5.812;2023-06-04T06:39:57;102102.53;;;16.43;48.15
59104;BME280;51449;51.676;5.812;2023-06-04T06:42:37;102105.56;;;16.50;47.99
59104;BME280;51449;51.676;5.812;2023-06-04T06:45:18;102116.00;;;16.53;47.28
59104;BME280;51449;51.676;5.812;2023-06-04T06:47:59;102117.44;;;16.59;47.49
59104;BME280;51449;51.676;5.812;2023-06-04T06:50:39;102112.59;;;16.68;47.84
59104;BME280;51449;51.676;5.812;2023-06-04T06:53:19;102123.09;;;16.84;47.08
59104;BME280;51449;51.676;5.812;2023-06-04T06:56:00;102123.09;;;16.96;46.69
59104;BME280;51449;51.676;5.812;2023-06-04T06:58:40;102125.81;;;17.05;46.46
59104;BME280;51449;51.676;5.812;2023-06-04T07:01:21;102125.09;;;17.20;46.55
59104;BME280;51449;51.676;5.812;2023-06-04T07:04:02;102125.91;;;17.45;46.40
59104;BME280;51449;51.676;5.812;2023-06-04T07:06:42;102122.28;;;17.69;45.76
59104;BME280;51449;51.676;5.812;2023-06-04T07:09:22;102120.31;;;17.82;45.29
59104;BME280;51449;51.676;5.812;2023-06-04T07:12:03;102121.47;;;17.93;44.88
59104;BME280;51449;51.676;5.812;2023-06-04T07:14:43;102123.03;;;18.07;44.76
59104;BME280;51449;51.676;5.812;2023-06-04T07:17:24;102124.88;;;18.15;44.16
59104;BME280;51449;51.676;5.812;2023-06-04T07:20:04;102129.25;;;18.28;43.27
59104;BME280;51449;51.676;5.812;2023-06-04T07:22:47;102124.31;;;18.37;43.56
59104;BME280;51449;51.676;5.812;2023-06-04T07:25:27;102133.56;;;18.54;43.25
59104;BME280;51449;51.676;5.812;2023-06-04T07:28:08;102121.72;;;18.73;42.97
59104;BME280;51449;51.676;5.812;2023-06-04T07:30:49;102132.38;;;18.83;42.55
59104;BME280;51449;51.676;5.812;2023-06-04T07:33:30;102133.91;;;18.96;42.17
59104;BME280;51449;51.676;5.812;2023-06-04T07:36:12;102126.19;;;19.06;41.42
59104;BME280;51449;51.676;5.812;2023-06-04T07:38:54;102122.56;;;19.05;41.05
59104;BME280;51449;51.676;5.812;2023-06-04T07:41:34;102123.22;;;19.14;42.09
59104;BME280;51449;51.676;5.812;2023-06-04T07:44:14;102123.63;;;19.32;41.74
59104;BME280;51449;51.676;5.812;2023-06-04T07:46:55;102116.13;;;19.52;41.43
59104;BME280;51449;51.676;5.812;2023-06-04T07:49:35;102124.81;;;19.82;41.81
59104;BME280;51449;51.676;5.812;2023-06-04T07:52:29;102128.53;;;20.06;40.78
59104;BME280;51449;51.676;5.812;2023-06-04T07:55:10;102130.75;;;20.16;39.87
59104;BME280;51449;51.676;5.812;2023-06-04T07:57:50;102130.22;;;20.10;39.79
59104;BME280;51449;51.676;5.812;2023-06-04T08:00:31;102133.03;;;20.10;39.46
59104;BME280;51449;51.676;5.812;2023-06-04T08:03:11;102123.44;;;20.12;39.50
59104;BME280;51449;51.676;5.812;2023-06-04T08:05:52;102133.69;;;20.23;39.52
59104;BME280;51449;51.676;5.812;2023-06-04T08:08:33;102119.75;;;20.46;40.17
59104;BME280;51449;51.676;5.812;2023-06-04T08:11:14;102126.97;;;20.67;39.30
59104;BME280;51449;51.676;5.812;2023-06-04T08:13:55;102124.06;;;20.83;38.86
59104;BME280;51449;51.676;5.812;2023-06-04T08:16:35;102130.34;;;20.99;38.13
59104;BME280;51449;51.676;5.812;2023-06-04T08:19:16;102125.50;;;20.96;37.84
59104;BME280;51449;51.676;5.812;2023-06-04T08:21:57;102130.59;;;20.90;37.56
59104;BME280;51449;51.676;5.812;2023-06-04T08:24:37;102128.31;;;20.96;37.60
59104;BME280;51449;51.676;5.812;2023-06-04T08:27:17;102122.13;;;21.10;37.57
59104;BME280;51449;51.676;5.812;2023-06-04T08:29:58;102126.91;;;21.32;37.42
59104;BME280;51449;51.676;5.812;2023-06-04T08:32:38;102127.84;;;21.40;36.94
59104;BME280;51449;51.676;5.812;2023-06-04T08:35:20;102124.94;;;21.59;37.14
59104;BME280;51449;51.676;5.812;2023-06-04T08:38:01;102125.19;;;21.77;36.33
59104;BME280;51449;51.676;5.812;2023-06-04T08:40:42;102136.22;;;21.90;36.73
59104;BME280;51449;51.676;5.812;2023-06-04T08:43:24;102127.56;;;22.02;36.05
59104;BME280;51449;51.676;5.812;2023-06-04T08:46:05;102123.66;;;22.14;36.20
59104;BME280;51449;51.676;5.812;2023-06-04T08:48:49;102133.59;;;22.34;36.21
59104;BME280;51449;51.676;5.812;2023-06-04T08:51:33;102129.00;;;22.56;35.51
59104;BME280;51449;51.676;5.812;2023-06-04T08:54:17;102131.22;;;22.77;35.65
59104;BME280;51449;51.676;5.812;2023-06-04T08:57:00;102129.84;;;22.98;34.50
59104;BME280;51449;51.676;5.812;2023-06-04T08:59:41;102133.16;;;23.07;33.96
59104;BME280;51449;51.676;5.812;2023-06-04T09:02:22;102138.78;;;23.11;34.19
59104;BME280;51449;51.676;5.812;2023-06-04T09:05:04;102135.63;;;23.16;33.17
59104;BME280;51449;51.676;5.812;2023-06-04T09:07:52;102135.66;;;23.19;32.37
59104;BME280;51449;51.676;5.812;2023-06-04T09:10:37;102132.50;;;23.28;32.82
59104;BME280;51449;51.676;5.812;2023-06-04T09:13:22;102136.22;;;23.39;32.38
59104;BME280;51449;51.676;5.812;2023-06-04T09:16:08;102131.50;;;23.54;32.04
59104;BME280;51449;51.676;5.812;2023-06-04T09:18:49;102142.31;;;23.48;31.54
59104;BME280;51449;51.676;5.812;2023-06-04T09:21:30;102130.53;;;23.36;31.85
59104;BME280;51449;51.676;5.812;2023-06-04T09:24:10;102129.75;;;23.32;31.22
59104;BME280;51449;51.676;5.812;2023-06-04T09:26:51;102136.59;;;23.38;30.59
59104;BME280;51449;51.676;5.812;2023-06-04T09:29:32;102132.66;;;23.46;29.96
59104;BME280;51449;51.676;5.812;2023-06-04T09:32:12;102137.91;;;23.55;30.43
59104;BME280;51449;51.676;5.812;2023-06-04T09:35:07;102135.19;;;23.65;29.67
59104;BME280;51449;51.676;5.812;2023-06-04T09:37:56;102144.19;;;23.85;30.25
59104;BME280;51449;51.676;5.812;2023-06-04T09:40:40;102130.19;;;24.03;29.33
59104;BME280;51449;51.676;5.812;2023-06-04T09:43:22;102123.84;;;24.24;29.56
59104;BME280;51449;51.676;5.812;2023-06-04T09:46:10;102128.72;;;24.34;28.35
59104;BME280;51449;51.676;5.812;2023-06-04T09:49:02;102129.47;;;24.24;28.68
59104;BME280;51449;51.676;5.812;2023-06-04T09:51:47;102124.66;;;24.25;27.91
59104;BME280;51449;51.676;5.812;2023-06-04T09:54:39;102122.25;;;24.27;27.87
59104;BME280;51449;51.676;5.812;2023-06-04T09:57:22;102126.69;;;24.35;27.65
59104;BME280;51449;51.676;5.812;2023-06-04T10:00:03;102131.19;;;24.47;28.27
59104;BME280;51449;51.676;5.812;2023-06-04T10:02:56;102123.59;;;24.69;27.76
59104;BME280;51449;51.676;5.812;2023-06-04T10:05:41;102128.84;;;24.81;27.90
59104;BME280;51449;51.676;5.812;2023-06-04T10:08:22;102127.22;;;24.91;27.74
59104;BME280;51449;51.676;5.812;2023-06-04T10:11:04;102125.25;;;25.09;27.71
59104;BME280;51449;51.676;5.812;2023-06-04T10:16:58;102115.59;;;25.25;27.41
59104;BME280;51449;51.676;5.812;2023-06-04T10:19:40;102120.41;;;25.35;27.27
59104;BME280;51449;51.676;5.812;2023-06-04T10:22:24;102123.63;;;25.44;26.42
59104;BME280;51449;51.676;5.812;2023-06-04T10:25:05;102119.56;;;25.56;26.23
59104;BME280;51449;51.676;5.812;2023-06-04T10:27:50;102121.97;;;25.68;25.86
59104;BME280;51449;51.676;5.812;2023-06-04T10:30:31;102114.69;;;25.71;26.23
59104;BME280;51449;51.676;5.812;2023-06-04T10:33:11;102111.47;;;25.69;26.04
59104;BME280;51449;51.676;5.812;2023-06-04T10:35:55;102117.97;;;25.58;26.24
59104;BME280;51449;51.676;5.812;2023-06-04T10:38:44;102121.59;;;25.52;26.21
59104;BME280;51449;51.676;5.812;2023-06-04T10:41:26;102127.66;;;25.36;25.83
59104;BME280;51449;51.676;5.812;2023-06-04T10:44:07;102121.22;;;25.39;25.20
59104;BME280;51449;51.676;5.812;2023-06-04T10:46:47;102113.16;;;25.34;25.65
59104;BME280;51449;51.676;5.812;2023-06-04T10:49:28;102080.91;;;25.42;25.68
59104;BME280;51449;51.676;5.812;2023-06-04T10:52:11;102118.38;;;25.46;25.61
59104;BME280;51449;51.676;5.812;2023-06-04T10:54:51;102113.94;;;25.52;25.11
59104;BME280;51449;51.676;5.812;2023-06-04T10:57:56;102119.16;;;25.57;26.22
59104;BME280;51449;51.676;5.812;2023-06-04T11:03:22;102121.16;;;25.71;25.06
59104;BME280;51449;51.676;5.812;2023-06-04T11:06:14;102117.88;;;25.83;25.11
59104;BME280;51449;51.676;5.812;2023-06-04T11:09:04;102119.47;;;25.99;25.14
59104;BME280;51449;51.676;5.812;2023-06-04T11:11:56;102117.06;;;25.79;23.77
59104;BME280;51449;51.676;5.812;2023-06-04T11:14:37;102107.84;;;25.65;24.48
59104;BME280;51449;51.676;5.812;2023-06-04T11:17:18;102113.91;;;25.70;24.79
59104;BME280;51449;51.676;5.812;2023-06-04T11:19:58;102113.81;;;25.84;24.90
59104;BME280;51449;51.676;5.812;2023-06-04T11:22:40;102111.03;;;25.88;24.75
59104;BME280;51449;51.676;5.812;2023-06-04T11:25:20;102105.78;;;25.97;24.90
59104;BME280;51449;51.676;5.812;2023-06-04T11:28:02;102099.66;;;26.10;24.50
59104;BME280;51449;51.676;5.812;2023-06-04T11:30:42;102105.66;;;26.19;24.82
59104;BME280;51449;51.676;5.812;2023-06-04T11:33:22;102098.34;;;26.29;24.50
59104;BME280;51449;51.676;5.812;2023-06-04T11:36:03;102104.78;;;26.36;23.90
59104;BME280;51449;51.676;5.812;2023-06-04T11:38:54;102099.88;;;26.40;23.54
59104;BME280;51449;51.676;5.812;2023-06-04T11:41:36;102087.84;;;26.29;23.30
59104;BME280;51449;51.676;5.812;2023-06-04T11:44:20;102085.47;;;26.24;24.32
59104;BME280;51449;51.676;5.812;2023-06-04T11:47:05;102088.25;;;26.27;24.50
59104;BME280;51449;51.676;5.812;2023-06-04T11:49:54;102080.84;;;26.48;24.91
59104;BME280;51449;51.676;5.812;2023-06-04T11:52:36;102083.22;;;26.64;23.90
59104;BME280;51449;51.676;5.812;2023-06-04T11:55:17;102088.13;;;26.45;24.00
59104;BME280;51449;51.676;5.812;2023-06-04T11:57:57;102087.00;;;26.36;24.17
59104;BME280;51449;51.676;5.812;2023-06-04T12:00:38;102078.09;;;26.37;24.29
59104;BME280;51449;51.676;5.812;2023-06-04T12:03:18;102073.25;;;26.41;24.15
59104;BME280;51449;51.676;5.812;2023-06-04T12:06:11;102071.56;;;26.47;24.39
59104;BME280;51449;51.676;5.812;2023-06-04T12:08:56;102073.97;;;26.56;24.40
59104;BME280;51449;51.676;5.812;2023-06-04T12:11:37;102069.44;;;26.69;24.18
59104;BME280;51449;51.676;5.812;2023-06-04T12:14:18;102082.28;;;26.81;24.26
59104;BME280;51449;51.676;5.812;2023-06-04T12:17:06;102076.94;;;26.90;24.09
59104;BME280;51449;51.676;5.812;2023-06-04T12:19:50;102076.16;;;26.86;23.45
59104;BME280;51449;51.676;5.812;2023-06-04T12:22:32;102072.59;;;26.79;23.66
59104;BME280;51449;51.676;5.812;2023-06-04T12:25:12;102070.56;;;26.79;23.33
59104;BME280;51449;51.676;5.812;2023-06-04T12:28:04;102065.00;;;26.68;24.15
59104;BME280;51449;51.676;5.812;2023-06-04T12:30:45;102067.78;;;26.72;23.80
59104;BME280;51449;51.676;5.812;2023-06-04T12:33:26;102063.28;;;26.82;24.00
59104;BME280;51449;51.676;5.812;2023-06-04T12:36:07;102062.00;;;26.90;23.21
59104;BME280;51449;51.676;5.812;2023-06-04T12:38:48;102058.00;;;26.87;24.33
59104;BME280;51449;51.676;5.812;2023-06-04T12:41:29;102060.66;;;27.05;24.41
59104;BME280;51449;51.676;5.812;2023-06-04T12:44:10;102060.53;;;27.20;23.90
59104;BME280;51449;51.676;5.812;2023-06-04T12:46:50;102058.97;;;27.11;23.24
59104;BME280;51449;51.676;5.812;2023-06-04T12:49:32;102058.94;;;27.15;23.57
59104;BME280;51449;51.676;5.812;2023-06-04T12:52:13;102059.56;;;27.33;23.54
59104;BME280;51449;51.676;5.812;2023-06-04T12:54:54;102060.41;;;27.34;22.92
59104;BME280;51449;51.676;5.812;2023-06-04T12:57:35;102054.03;;;27.26;23.41
59104;BME280;51449;51.676;5.812;2023-06-04T13:00:15;102044.25;;;27.31;23.22
59104;BME280;51449;51.676;5.812;2023-06-04T13:02:56;102059.75;;;27.19;22.89
59104;BME280;51449;51.676;5.812;2023-06-04T13:05:37;102056.97;;;27.12;23.05
59104;BME280;51449;51.676;5.812;2023-06-04T13:08:19;102056.59;;;27.06;23.05
59104;BME280;51449;51.676;5.812;2023-06-04T13:11:02;102046.91;;;27.07;23.01
59104;BME280;51449;51.676;5.812;2023-06-04T13:13:45;102046.16;;;27.00;23.27
59104;BME280;51449;51.676;5.812;2023-06-04T13:16:26;102049.34;;;27.02;23.61
59104;BME280;51449;51.676;5.812;2023-06-04T13:19:07;102056.25;;;27.01;22.87
59104;BME280;51449;51.676;5.812;2023-06-04T13:21:49;102049.06;;;26.93;23.41
59104;BME280;51449;51.676;5.812;2023-06-04T13:24:31;102033.59;;;27.04;23.29
59104;BME280;51449;51.676;5.812;2023-06-04T13:27:12;102050.44;;;27.19;23.29
59104;BME280;51449;51.676;5.812;2023-06-04T13:29:56;102043.97;;;27.22;23.30
59104;BME280;51449;51.676;5.812;2023-06-04T13:32:36;102041.41;;;27.31;23.04
59104;BME280;51449;51.676;5.812;2023-06-04T13:35:16;102041.06;;;27.29;23.34
59104;BME280;51449;51.676;5.812;2023-06-04T13:37:58;102038.16;;;27.32;23.22
59104;BME280;51449;51.676;5.812;2023-06-04T13:40:38;102038.94;;;27.37;22.57
59104;BME280;51449;51.676;5.812;2023-06-04T13:43:19;102033.00;;;27.24;23.12
59104;BME280;51449;51.676;5.812;2023-06-04T13:46:03;102038.69;;;27.20;23.43
59104;BME280;51449;51.676;5.812;2023-06-04T13:48:44;102031.00;;;27.24;22.73
59104;BME280;51449;51.676;5.812;2023-06-04T13:51:24;102034.63;;;27.21;23.00
59104;BME280;51449;51.676;5.812;2023-06-04T13:54:05;102034.06;;;27.37;23.47
59104;BME280;51449;51.676;5.812;2023-06-04T13:56:47;102034.31;;;27.50;22.76
59104;BME280;51449;51.676;5.812;2023-06-04T13:59:29;102027.81;;;27.53;22.39
59104;BME280;51449;51.676;5.812;2023-06-04T14:02:11;102034.38;;;27.46;22.68
59104;BME280;51449;51.676;5.812;2023-06-04T14:04:53;102028.25;;;27.51;22.87
59104;BME280;51449;51.676;5.812;2023-06-04T14:07:35;102025.38;;;27.55;23.16
59104;BME280;51449;51.676;5.812;2023-06-04T14:10:16;102023.81;;;27.50;22.99
59104;BME280;51449;51.676;5.812;2023-06-04T14:12:56;102024.28;;;27.45;23.20
59104;BME280;51449;51.676;5.812;2023-06-04T14:15:37;102011.28;;;27.51;23.05
59104;BME280;51449;51.676;5.812;2023-06-04T14:18:17;102011.91;;;27.63;23.23